createdAt,value
2018-04-17T00:00:44.783Z,996.51
2018-04-17T00:01:44.796Z,996.51
2018-04-17T00:02:44.758Z,996.51
2018-04-17T00:03:44.841Z,996.52
2018-04-17T00:04:44.833Z,996.53
2018-04-17T00:05:44.797Z,996.51
2018-04-17T00:06:44.725Z,996.50
2018-04-17T00:07:44.799Z,996.50
2018-04-17T00:08:44.767Z,996.51
2018-04-17T00:09:44.704Z,996.51
2018-04-17T00:10:44.773Z,996.50
2018-04-17T00:11:44.600Z,996.49
2018-04-17T00:12:44.661Z,996.51
2018-04-17T00:13:44.554Z,996.51
2018-04-17T00:14:44.558Z,996.51
2018-04-17T00:15:44.491Z,996.53
2018-04-17T00:16:44.600Z,996.55
2018-04-17T00:17:44.547Z,996.54
2018-04-17T00:18:44.456Z,996.54
2018-04-17T00:19:44.479Z,996.59
2018-04-17T00:20:44.524Z,996.56
2018-04-17T00:21:44.437Z,996.63
2018-04-17T00:22:44.388Z,996.59
2018-04-17T00:23:44.295Z,996.58
2018-04-17T00:24:44.322Z,996.63
2018-04-17T00:25:44.316Z,996.63
2018-04-17T00:26:44.358Z,996.64
2018-04-17T00:27:44.851Z,996.65
2018-04-17T00:28:44.189Z,996.64
2018-04-17T00:29:44.192Z,996.67
2018-04-17T00:30:44.187Z,996.68
2018-04-17T00:31:44.272Z,996.68
2018-04-17T00:32:44.303Z,996.65
2018-04-17T00:33:44.091Z,996.70
2018-04-17T00:34:44.221Z,996.72
2018-04-17T00:35:44.146Z,996.70
2018-04-17T00:36:44.075Z,996.71
2018-04-17T00:37:44.316Z,996.72
2018-04-17T00:38:44.062Z,996.73
2018-04-17T00:39:44.011Z,996.75
2018-04-17T00:40:43.957Z,996.74
2018-04-17T00:41:43.987Z,996.77
2018-04-17T00:42:43.955Z,996.80
2018-04-17T00:43:43.995Z,996.83
2018-04-17T00:44:43.984Z,996.80
2018-04-17T00:45:43.913Z,996.85
2018-04-17T00:46:43.924Z,996.86
2018-04-17T00:47:43.906Z,996.88
2018-04-17T00:48:43.849Z,996.94
2018-04-17T00:49:43.802Z,996.92
2018-04-17T00:50:43.790Z,996.97
2018-04-17T00:51:43.946Z,996.96
2018-04-17T00:52:43.778Z,997.01
2018-04-17T00:53:44.246Z,997.03
2018-04-17T00:54:43.767Z,997.06
2018-04-17T00:55:43.759Z,997.06
2018-04-17T00:56:43.727Z,997.06
2018-04-17T00:57:43.746Z,997.07
2018-04-17T00:58:43.637Z,997.08
2018-04-17T00:59:43.531Z,997.13
2018-04-17T01:00:43.624Z,997.17
2018-04-17T01:01:43.630Z,997.13
2018-04-17T01:02:43.662Z,997.18
2018-04-17T01:03:43.715Z,997.20
2018-04-17T01:04:43.498Z,997.21
2018-04-17T01:05:43.580Z,997.24
2018-04-17T01:06:43.461Z,997.24
2018-04-17T01:07:44.006Z,997.22
2018-04-17T01:08:43.392Z,997.31
2018-04-17T01:09:43.372Z,997.30
2018-04-17T01:10:43.299Z,997.29
2018-04-17T01:11:43.511Z,997.31
2018-04-17T01:12:43.389Z,997.30
2018-04-17T01:13:43.331Z,997.35
2018-04-17T01:14:43.258Z,997.33
2018-04-17T01:15:43.407Z,997.36
2018-04-17T01:16:43.394Z,997.36
2018-04-17T01:17:43.239Z,997.36
2018-04-17T01:18:43.191Z,997.36
2018-04-17T01:19:43.199Z,997.37
2018-04-17T01:20:43.175Z,997.39
2018-04-17T01:21:43.139Z,997.40
2018-04-17T01:22:43.127Z,997.39
2018-04-17T01:23:43.128Z,997.42
2018-04-17T01:24:43.173Z,997.40
2018-04-17T01:25:43.113Z,997.40
2018-04-17T01:26:43.196Z,997.43
2018-04-17T01:27:43.075Z,997.43
2018-04-17T01:28:43.107Z,997.42
2018-04-17T01:29:42.926Z,997.43
2018-04-17T01:30:43.088Z,997.42
2018-04-17T01:31:42.851Z,997.42
2018-04-17T01:32:42.974Z,997.44
2018-04-17T01:33:43.017Z,997.43
2018-04-17T01:34:43.077Z,997.41
2018-04-17T01:35:42.897Z,997.40
2018-04-17T01:36:42.762Z,997.40
2018-04-17T01:37:42.846Z,997.37
2018-04-17T01:38:42.812Z,997.38
2018-04-17T01:39:42.796Z,997.41
2018-04-17T01:40:42.739Z,997.42
2018-04-17T01:41:42.709Z,997.40
2018-04-17T01:42:42.726Z,997.44
2018-04-17T01:43:42.708Z,997.45
2018-04-17T01:44:42.639Z,997.46
2018-04-17T01:46:05.529Z,997.40
2018-04-17T01:46:42.674Z,997.47
2018-04-17T01:47:42.709Z,997.46
2018-04-17T01:48:42.649Z,997.44
2018-04-17T01:49:42.638Z,997.43
2018-04-17T01:50:42.556Z,997.42
2018-04-17T01:51:42.546Z,997.40
2018-04-17T01:52:42.488Z,997.40
2018-04-17T01:53:42.490Z,997.44
2018-04-17T01:54:42.554Z,997.43
2018-04-17T01:55:42.591Z,997.47
2018-04-17T01:56:42.514Z,997.45
2018-04-17T01:57:42.322Z,997.46
2018-04-17T01:58:42.476Z,997.44
2018-04-17T01:59:42.410Z,997.47
2018-04-17T02:00:42.338Z,997.45
2018-04-17T02:01:42.367Z,997.49
2018-04-17T02:02:42.425Z,997.48
2018-04-17T02:03:42.354Z,997.48
2018-04-17T02:04:42.323Z,997.50
2018-04-17T02:05:42.250Z,997.51
2018-04-17T02:06:42.222Z,997.49
2018-04-17T02:07:42.139Z,997.52
2018-04-17T02:08:42.173Z,997.51
2018-04-17T02:09:42.204Z,997.52
2018-04-17T02:10:42.139Z,997.54
2018-04-17T02:11:42.196Z,997.53
2018-04-17T02:12:42.175Z,997.57
2018-04-17T02:13:42.047Z,997.54
2018-04-17T02:14:42.216Z,997.57
2018-04-17T02:15:42.059Z,997.57
2018-04-17T02:16:42.150Z,997.56
2018-04-17T02:17:41.953Z,997.56
2018-04-17T02:18:41.998Z,997.57
2018-04-17T02:19:41.916Z,997.61
2018-04-17T02:20:41.947Z,997.59
2018-04-17T02:21:41.860Z,997.61
2018-04-17T02:22:42.015Z,997.58
2018-04-17T02:23:41.917Z,997.62
2018-04-17T02:24:41.851Z,997.62
2018-04-17T02:25:41.875Z,997.59
2018-04-17T02:26:41.808Z,997.61
2018-04-17T02:27:41.890Z,997.62
2018-04-17T02:28:41.693Z,997.62
2018-04-17T02:29:41.710Z,997.61
2018-04-17T02:30:41.883Z,997.60
2018-04-17T02:31:41.746Z,997.64
2018-04-17T02:32:42.549Z,997.66
2018-04-17T02:33:41.718Z,997.63
2018-04-17T02:34:41.661Z,997.59
2018-04-17T02:35:41.716Z,997.60
2018-04-17T02:36:41.588Z,997.59
2018-04-17T02:37:41.742Z,997.62
2018-04-17T02:38:41.498Z,997.64
2018-04-17T02:39:41.590Z,997.63
2018-04-17T02:40:41.660Z,997.65
2018-04-17T02:41:42.282Z,997.67
2018-04-17T02:42:41.448Z,997.65
2018-04-17T02:43:41.615Z,997.67
2018-04-17T02:44:41.410Z,997.68
2018-04-17T02:45:41.389Z,997.69
2018-04-17T02:46:41.402Z,997.72
2018-04-17T02:47:41.426Z,997.72
2018-04-17T02:48:41.337Z,997.71
2018-04-17T02:49:41.338Z,997.71
2018-04-17T02:50:41.294Z,997.70
2018-04-17T02:51:42.072Z,997.69
2018-04-17T02:52:41.342Z,997.74
2018-04-17T02:53:41.429Z,997.76
2018-04-17T02:54:41.278Z,997.79
2018-04-17T02:55:41.134Z,997.78
2018-04-17T02:56:41.267Z,997.77
2018-04-17T02:57:41.298Z,997.81
2018-04-17T02:58:41.341Z,997.82
2018-04-17T02:59:41.147Z,997.83
2018-04-17T03:00:41.112Z,997.88
2018-04-17T03:01:41.118Z,997.88
2018-04-17T03:02:42.947Z,997.89
2018-04-17T03:03:40.927Z,997.91
2018-04-17T03:04:41.031Z,997.94
2018-04-17T03:05:40.952Z,997.94
2018-04-17T03:06:41.004Z,997.95
2018-04-17T03:07:41.109Z,998.01
2018-04-17T03:08:41.048Z,997.97
2018-04-17T03:09:40.971Z,997.99
2018-04-17T03:10:40.978Z,997.99
2018-04-17T03:11:40.954Z,998.01
2018-04-17T03:12:40.867Z,998.01
2018-04-17T03:13:40.964Z,997.98
2018-04-17T03:14:40.844Z,998.02
2018-04-17T03:15:40.972Z,998.06
2018-04-17T03:16:40.791Z,998.06
2018-04-17T03:17:40.817Z,998.06
2018-04-17T03:18:40.758Z,998.07
2018-04-17T03:19:40.634Z,998.06
2018-04-17T03:20:40.768Z,998.05
2018-04-17T03:21:40.756Z,998.06
2018-04-17T03:22:40.621Z,998.01
2018-04-17T03:23:40.604Z,998.04
2018-04-17T03:24:40.674Z,998.04
2018-04-17T03:25:40.554Z,998.07
2018-04-17T03:26:40.671Z,998.09
2018-04-17T03:27:40.544Z,998.06
2018-04-17T03:28:40.571Z,998.07
2018-04-17T03:29:40.578Z,998.07
2018-04-17T03:30:40.441Z,998.10
2018-04-17T03:31:40.468Z,998.08
2018-04-17T03:32:40.527Z,998.10
2018-04-17T03:33:40.451Z,998.12
2018-04-17T03:34:40.595Z,998.12
2018-04-17T03:35:40.510Z,998.17
2018-04-17T03:36:40.313Z,998.15
2018-04-17T03:37:40.361Z,998.16
2018-04-17T03:38:40.338Z,998.15
2018-04-17T03:39:40.326Z,998.15
2018-04-17T03:40:40.226Z,998.17
2018-04-17T03:41:40.403Z,998.15
2018-04-17T03:42:40.352Z,998.18
2018-04-17T03:43:40.258Z,998.17
2018-04-17T03:44:40.304Z,998.18
2018-04-17T03:45:40.205Z,998.23
2018-04-17T03:46:40.440Z,998.20
2018-04-17T03:47:40.224Z,998.22
2018-04-17T03:48:40.216Z,998.23
2018-04-17T03:49:40.106Z,998.21
2018-04-17T03:50:40.787Z,998.24
2018-04-17T03:51:40.184Z,998.25
2018-04-17T03:52:40.037Z,998.24
2018-04-17T03:53:40.196Z,998.25
2018-04-17T03:54:40.039Z,998.28
2018-04-17T03:55:42.164Z,998.32
2018-04-17T03:56:39.991Z,998.30
2018-04-17T03:57:39.898Z,998.29
2018-04-17T03:58:54.648Z,998.30
2018-04-17T03:59:39.860Z,998.32
2018-04-17T04:00:39.804Z,998.30
2018-04-17T04:01:39.930Z,998.28
2018-04-17T04:02:39.794Z,998.26
2018-04-17T04:03:39.878Z,998.28
2018-04-17T04:04:39.715Z,998.28
2018-04-17T04:05:39.639Z,998.27
2018-04-17T04:06:39.685Z,998.30
2018-04-17T04:07:39.607Z,998.32
2018-04-17T04:08:39.718Z,998.35
2018-04-17T04:09:39.608Z,998.37
2018-04-17T04:10:39.686Z,998.33
2018-04-17T04:11:39.564Z,998.39
2018-04-17T04:12:39.541Z,998.35
2018-04-17T04:13:39.637Z,998.35
2018-04-17T04:14:39.708Z,998.37
2018-04-17T04:15:40.590Z,998.35
2018-04-17T04:16:39.766Z,998.39
2018-04-17T04:17:39.442Z,998.36
2018-04-17T04:18:39.615Z,998.39
2018-04-17T04:19:39.584Z,998.43
2018-04-17T04:20:39.511Z,998.42
2018-04-17T04:21:39.517Z,998.46
2018-04-17T04:22:39.696Z,998.48
2018-04-17T04:23:39.755Z,998.44
2018-04-17T04:24:39.469Z,998.46
2018-04-17T04:25:39.433Z,998.50
2018-04-17T04:26:39.530Z,998.48
2018-04-17T04:27:39.448Z,998.52
2018-04-17T04:28:39.343Z,998.52
2018-04-17T04:29:39.677Z,998.57
2018-04-17T04:30:39.301Z,998.59
2018-04-17T04:31:39.195Z,998.58
2018-04-17T04:32:39.347Z,998.67
2018-04-17T04:33:39.522Z,998.68
2018-04-17T04:34:39.220Z,998.67
2018-04-17T04:35:41.310Z,998.75
2018-04-17T04:36:39.270Z,998.74
2018-04-17T04:37:39.281Z,998.72
2018-04-17T04:38:39.214Z,998.71
2018-04-17T04:39:39.350Z,998.72
2018-04-17T04:40:39.129Z,998.73
2018-04-17T04:41:39.133Z,998.72
2018-04-17T04:42:39.059Z,998.74
2018-04-17T04:43:38.993Z,998.77
2018-04-17T04:44:39.193Z,998.80
2018-04-17T04:45:38.966Z,998.80
2018-04-17T04:46:38.975Z,998.78
2018-04-17T04:47:39.084Z,998.79
2018-04-17T04:48:39.010Z,998.78
2018-04-17T04:49:38.945Z,998.80
2018-04-17T04:50:39.099Z,998.82
2018-04-17T04:51:39.159Z,998.83
2018-04-17T04:52:39.116Z,998.84
2018-04-17T04:53:38.769Z,998.85
2018-04-17T04:54:39.038Z,998.85
2018-04-17T04:55:38.763Z,998.85
2018-04-17T04:56:38.832Z,998.87
2018-04-17T04:57:38.917Z,998.86
2018-04-17T04:58:39.057Z,998.88
2018-04-17T04:59:38.718Z,998.88
2018-04-17T05:00:39.021Z,998.90
2018-04-17T05:01:38.689Z,998.87
2018-04-17T05:02:38.737Z,998.90
2018-04-17T05:03:38.646Z,998.92
2018-04-17T05:04:38.600Z,998.90
2018-04-17T05:05:39.032Z,998.97
2018-04-17T05:06:38.450Z,998.96
2018-04-17T05:07:38.572Z,998.97
2018-04-17T05:08:38.541Z,998.96
2018-04-17T05:09:38.508Z,999.02
2018-04-17T05:10:38.753Z,999.04
2018-04-17T05:11:38.430Z,999.06
2018-04-17T05:12:38.717Z,999.08
2018-04-17T05:13:38.983Z,999.10
2018-04-17T05:14:38.402Z,999.15
2018-04-17T05:15:38.399Z,999.15
2018-04-17T05:16:38.374Z,999.17
2018-04-17T05:17:38.403Z,999.20
2018-04-17T05:18:38.443Z,999.21
2018-04-17T05:19:38.292Z,999.24
2018-04-17T05:20:38.351Z,999.25
2018-04-17T05:21:38.312Z,999.24
2018-04-17T05:22:38.401Z,999.28
2018-04-17T05:23:38.189Z,999.29
2018-04-17T05:24:38.386Z,999.29
2018-04-17T05:25:38.302Z,999.33
2018-04-17T05:26:38.306Z,999.34
2018-04-17T05:27:38.343Z,999.32
2018-04-17T05:28:38.250Z,999.35
2018-04-17T05:29:38.201Z,999.37
2018-04-17T05:30:38.316Z,999.39
2018-04-17T05:31:37.985Z,999.40
2018-04-17T05:32:38.132Z,999.46
2018-04-17T05:33:38.046Z,999.52
2018-04-17T05:34:38.152Z,999.50
2018-04-17T05:35:38.243Z,999.47
2018-04-17T05:36:38.195Z,999.53
2018-04-17T05:37:38.193Z,999.56
2018-04-17T05:38:38.070Z,999.56
2018-04-17T05:39:38.427Z,999.59
2018-04-17T05:40:37.921Z,999.61
2018-04-17T05:41:38.020Z,999.65
2018-04-17T05:42:38.112Z,999.68
2018-04-17T05:43:38.235Z,999.69
2018-04-17T05:44:38.269Z,999.71
2018-04-17T05:45:38.046Z,999.78
2018-04-17T05:46:37.999Z,999.80
2018-04-17T05:47:37.901Z,999.83
2018-04-17T05:50:04.039Z,999.88
2018-04-17T05:51:18.075Z,999.87
2018-04-17T05:52:55.159Z,999.95
2018-04-17T05:53:55.161Z,999.96
2018-04-17T05:54:55.101Z,1000.01
2018-04-17T05:55:55.357Z,999.99
2018-04-17T05:56:55.121Z,1000.02
2018-04-17T05:57:54.875Z,1000.03
2018-04-17T05:58:54.713Z,1000.04
2018-04-17T05:59:56.616Z,1000.02
2018-04-17T06:00:54.941Z,1000.07
2018-04-17T06:01:55.065Z,1000.07
2018-04-17T06:02:54.627Z,1000.07
2018-04-17T06:03:54.550Z,1000.11
2018-04-17T06:04:54.728Z,1000.13
2018-04-17T06:05:54.546Z,1000.18
2018-04-17T06:06:54.491Z,1000.17
2018-04-17T06:07:54.478Z,1000.22
2018-04-17T06:08:54.468Z,1000.18
2018-04-17T06:09:54.456Z,1000.22
2018-04-17T06:10:54.420Z,1000.24
2018-04-17T06:11:54.383Z,1000.20
2018-04-17T06:12:54.384Z,1000.22
2018-04-17T06:13:54.388Z,1000.23
2018-04-17T06:14:54.320Z,1000.30
2018-04-17T06:15:54.432Z,1000.30
2018-04-17T06:16:54.332Z,1000.27
2018-04-17T06:32:04.599Z,1000.37
2018-04-17T06:36:27.120Z,1000.85
2018-04-17T06:39:49.193Z,1000.98
2018-04-17T06:56:31.307Z,1000.92
2018-04-17T06:57:31.766Z,1001.02
2018-04-17T07:09:05.511Z,1001.15
2018-04-17T07:10:05.986Z,1001.17
2018-04-17T07:11:05.277Z,1001.23
2018-04-17T07:12:04.829Z,1001.25
2018-04-17T07:13:04.912Z,1001.19
2018-04-17T07:14:05.044Z,1001.19
2018-04-17T07:15:04.848Z,1001.21
2018-04-17T07:16:04.853Z,1001.25
2018-04-17T07:17:05.062Z,1001.26
2018-04-17T07:18:04.496Z,1001.25
2018-04-17T07:19:04.480Z,1001.28
2018-04-17T07:20:04.412Z,1001.28
2018-04-17T07:21:04.476Z,1001.22
2018-04-17T07:22:04.390Z,1001.22
2018-04-17T07:23:04.343Z,1001.30
2018-04-17T07:24:04.354Z,1001.31
2018-04-17T07:25:04.381Z,1001.29
2018-04-17T07:26:04.297Z,1001.29
2018-04-17T07:27:04.256Z,1001.33
2018-04-17T07:28:04.257Z,1001.29
2018-04-17T07:29:04.282Z,1001.31
2018-04-17T07:30:04.271Z,1001.35
2018-04-17T07:31:04.245Z,1001.34
2018-04-17T07:32:04.344Z,1001.39
2018-04-17T07:33:04.310Z,1001.35
2018-04-17T07:34:04.264Z,1001.38
2018-04-17T07:35:04.280Z,1001.39
2018-04-17T07:36:04.677Z,1001.37
2018-04-17T07:37:04.137Z,1001.38
2018-04-17T07:38:04.991Z,1001.36
2018-04-17T07:39:04.177Z,1001.38
2018-04-17T07:40:04.147Z,1001.38
2018-04-17T07:41:04.111Z,1001.36
2018-04-17T07:42:04.072Z,1001.37
2018-04-17T07:43:04.115Z,1001.41
2018-04-17T07:44:04.057Z,1001.42
2018-04-17T07:45:04.087Z,1001.39
2018-04-17T07:46:04.213Z,1001.39
2018-04-17T07:47:04.164Z,1001.42
2018-04-17T07:48:04.035Z,1001.43
2018-04-17T07:49:04.132Z,1001.42
2018-04-17T07:50:04.049Z,1001.44
2018-04-17T07:51:04.780Z,1001.41
2018-04-17T07:52:04.037Z,1001.39
2018-04-17T07:53:03.996Z,1001.40
2018-04-17T07:54:03.953Z,1001.42
2018-04-17T07:55:04.174Z,1001.45
2018-04-17T07:56:04.009Z,1001.47
2018-04-17T07:57:03.981Z,1001.55
2018-04-17T07:58:03.923Z,1001.49
2018-04-17T07:59:03.911Z,1001.56
2018-04-17T08:00:03.867Z,1001.59
2018-04-17T08:01:03.876Z,1001.59
2018-04-17T08:02:03.883Z,1001.64
2018-04-17T08:03:03.853Z,1001.63
2018-04-17T08:04:03.837Z,1001.65
2018-04-17T08:05:03.836Z,1001.65
2018-04-17T08:06:03.840Z,1001.57
2018-04-17T08:07:03.832Z,1001.54
2018-04-17T08:08:03.807Z,1001.55
2018-04-17T08:09:03.791Z,1001.54
2018-04-17T08:10:03.792Z,1001.58
2018-04-17T08:11:03.781Z,1001.58
2018-04-17T08:12:03.793Z,1001.61
2018-04-17T08:13:03.804Z,1001.56
2018-04-17T08:14:03.760Z,1001.64
2018-04-17T08:15:03.769Z,1001.59
2018-04-17T08:16:03.746Z,1001.59
2018-04-17T08:17:03.748Z,1001.62
2018-04-17T08:18:03.761Z,1001.58
2018-04-17T08:19:03.734Z,1001.59
2018-04-17T08:20:03.752Z,1001.60
2018-04-17T08:21:04.647Z,1001.60
2018-04-17T08:22:03.713Z,1001.57
2018-04-17T08:23:03.711Z,1001.56
2018-04-17T08:24:03.710Z,1001.59
2018-04-17T08:25:03.735Z,1001.58
2018-04-17T08:26:03.684Z,1001.60
2018-04-17T08:27:03.675Z,1001.60
2018-04-17T08:28:03.685Z,1001.59
2018-04-17T08:29:03.690Z,1001.62
2018-04-17T08:30:03.673Z,1001.58
2018-04-17T08:31:03.665Z,1001.58
2018-04-17T08:32:03.661Z,1001.60
2018-04-17T08:33:03.636Z,1001.59
2018-04-17T08:34:03.688Z,1001.57
2018-04-17T08:35:03.647Z,1001.52
2018-04-17T08:36:03.656Z,1001.54
2018-04-17T08:37:03.651Z,1001.52
2018-04-17T08:38:03.640Z,1001.52
2018-04-17T08:39:03.620Z,1001.52
2018-04-17T08:40:03.620Z,1001.52
2018-04-17T08:41:03.626Z,1001.55
2018-04-17T08:42:03.614Z,1001.60
2018-04-17T08:43:03.634Z,1001.58
2018-04-17T08:44:03.577Z,1001.57
2018-04-17T08:45:03.596Z,1001.55
2018-04-17T08:46:03.630Z,1001.54
2018-04-17T08:47:03.598Z,1001.59
2018-04-17T08:48:03.590Z,1001.59
2018-04-17T08:49:03.554Z,1001.61
2018-04-17T08:50:03.562Z,1001.62
2018-04-17T08:51:03.566Z,1001.64
2018-04-17T08:52:03.569Z,1001.74
2018-04-17T08:53:03.569Z,1001.77
2018-04-17T08:54:03.541Z,1001.84
2018-04-17T08:55:03.577Z,1001.79
2018-04-17T08:56:03.539Z,1001.78
2018-04-17T08:57:03.541Z,1001.78
2018-04-17T08:58:03.554Z,1001.84
2018-04-17T08:59:03.557Z,1001.84
2018-04-17T09:00:03.568Z,1001.86
2018-04-17T09:01:03.550Z,1001.83
2018-04-17T09:02:03.544Z,1001.88
2018-04-17T09:03:03.515Z,1001.92
2018-04-17T09:04:03.605Z,1001.94
2018-04-17T09:05:03.515Z,1001.91
2018-04-17T09:06:03.545Z,1001.92
2018-04-17T09:07:03.522Z,1001.95
2018-04-17T09:08:03.535Z,1001.98
2018-04-17T09:09:03.582Z,1001.99
2018-04-17T09:10:03.743Z,1001.99
2018-04-17T09:11:03.652Z,1002.00
2018-04-17T09:12:03.512Z,1002.01
2018-04-17T09:13:03.516Z,1002.01
2018-04-17T09:14:03.480Z,1002.01
2018-04-17T09:15:03.523Z,1002.01
2018-04-17T09:16:04.216Z,1002.04
2018-04-17T09:17:03.502Z,1002.06
2018-04-17T09:18:03.507Z,1002.08
2018-04-17T09:19:03.582Z,1002.10
2018-04-17T09:20:03.551Z,1002.10
2018-04-17T09:21:03.569Z,1002.08
2018-04-17T09:22:03.525Z,1002.03
2018-04-17T09:23:03.518Z,1002.06
2018-04-17T09:24:03.487Z,1002.09
2018-04-17T09:25:03.486Z,1002.12
2018-04-17T09:26:03.491Z,1002.00
2018-04-17T09:27:03.457Z,1002.02
2018-04-17T09:28:03.478Z,1002.02
2018-04-17T09:29:03.475Z,1001.99
2018-04-17T09:30:03.469Z,1002.00
2018-04-17T09:31:03.477Z,1002.03
2018-04-17T09:32:03.504Z,1002.06
2018-04-17T09:33:03.493Z,1002.09
2018-04-17T09:34:03.638Z,1002.10
2018-04-17T09:35:04.547Z,1002.09
2018-04-17T10:06:46.749Z,1002.14
2018-04-17T10:07:47.912Z,1002.13
2018-04-17T10:08:40.026Z,1002.17
2018-04-17T10:11:25.201Z,1002.20
2018-04-17T10:12:17.873Z,1002.17
2018-04-17T10:13:18.048Z,1002.20
2018-04-17T10:14:17.900Z,1002.20
2018-04-17T10:15:18.052Z,1002.19
2018-04-17T10:16:17.970Z,1002.15
2018-04-17T10:17:17.613Z,1002.20
2018-04-17T10:18:17.591Z,1002.18
2018-04-17T10:19:17.566Z,1002.13
2018-04-17T10:20:17.578Z,1002.10
2018-04-17T10:21:17.614Z,1002.12
2018-04-17T10:22:17.598Z,1002.07
2018-04-17T10:23:17.597Z,1002.13
2018-04-17T10:24:17.588Z,1002.10
2018-04-17T10:25:17.613Z,1002.05
2018-04-17T10:26:17.578Z,1002.03
2018-04-17T10:27:17.586Z,1001.90
2018-04-17T10:28:17.602Z,1001.91
2018-04-17T10:29:17.609Z,1001.92
2018-04-17T10:30:18.157Z,1001.97
2018-04-17T10:31:17.641Z,1001.90
2018-04-17T10:32:17.615Z,1001.74
2018-04-17T10:33:17.606Z,1001.83
2018-04-17T10:34:17.628Z,1001.99
2018-04-17T10:35:17.728Z,1001.91
2018-04-17T10:36:17.590Z,1001.98
2018-04-17T10:37:17.657Z,1002.01
2018-04-17T10:38:17.631Z,1002.02
2018-04-17T10:39:17.669Z,1001.97
2018-04-17T10:40:17.615Z,1001.99
2018-04-17T10:41:17.583Z,1002.01
2018-04-17T10:42:17.647Z,1001.98
2018-04-17T10:43:17.600Z,1001.96
2018-04-17T10:44:17.690Z,1002.01
2018-04-17T10:45:17.600Z,1001.94
2018-04-17T10:46:17.648Z,1001.98
2018-04-17T10:47:17.636Z,1001.97
2018-04-17T10:48:17.728Z,1002.01
2018-04-17T10:49:17.636Z,1002.12
2018-04-17T10:50:17.620Z,1002.17
2018-04-17T10:51:17.650Z,1001.50
2018-04-17T10:52:17.644Z,1002.05
2018-04-17T10:53:17.604Z,1002.07
2018-04-17T10:54:17.601Z,1001.99
2018-04-17T10:55:17.621Z,1001.02
2018-04-17T10:56:17.678Z,1001.57
2018-04-17T10:57:17.759Z,1002.00
2018-04-17T10:58:17.639Z,1002.12
2018-04-17T10:59:17.629Z,1002.02
2018-04-17T11:00:17.652Z,1002.04
2018-04-17T11:01:17.687Z,1001.94
2018-04-17T11:02:17.644Z,1001.77
2018-04-17T11:03:17.668Z,1001.84
2018-04-17T11:04:17.662Z,1001.79
2018-04-17T11:05:17.656Z,1001.80
2018-04-17T11:06:17.642Z,1001.77
2018-04-17T11:07:17.684Z,1001.75
2018-04-17T11:08:17.662Z,1001.71
2018-04-17T11:09:17.654Z,1001.70
2018-04-17T11:10:17.644Z,1001.72
2018-04-17T11:11:17.664Z,1001.79
2018-04-17T11:12:17.622Z,1001.77
2018-04-17T11:13:17.659Z,1001.82
2018-04-17T11:14:17.634Z,1001.77
2018-04-17T11:15:17.646Z,1001.69
2018-04-17T11:16:17.626Z,1001.68
2018-04-17T11:17:17.665Z,1001.64
2018-04-17T11:18:17.630Z,1001.70
2018-04-17T11:19:17.639Z,1001.64
2018-04-17T11:20:17.634Z,1001.68
2018-04-17T11:21:17.640Z,1001.62
2018-04-17T11:22:17.641Z,1001.64
2018-04-17T11:23:17.604Z,1001.70
2018-04-17T11:24:17.631Z,1001.72
2018-04-17T11:25:17.632Z,1001.78
2018-04-17T11:26:17.640Z,1001.71
2018-04-17T11:27:17.633Z,1001.67
2018-04-17T11:28:17.627Z,1001.68
2018-04-17T11:29:17.629Z,1001.66
2018-04-17T11:30:17.617Z,1001.67
2018-04-17T11:31:17.666Z,1001.69
2018-04-17T11:32:17.629Z,1001.73
2018-04-17T11:33:17.639Z,1001.83
2018-04-17T11:34:17.606Z,1001.90
2018-04-17T11:35:17.629Z,1001.82
2018-04-17T11:36:17.641Z,1001.85
2018-04-17T11:37:17.616Z,1001.79
2018-04-17T11:38:17.640Z,1001.82
2018-04-17T11:39:17.612Z,1001.75
2018-04-17T11:40:17.627Z,1001.75
2018-04-17T11:41:17.616Z,1001.72
2018-04-17T11:42:17.682Z,1001.71
2018-04-17T11:43:17.649Z,1001.61
2018-04-17T11:44:17.692Z,1001.71
2018-04-17T11:45:17.642Z,1001.74
2018-04-17T11:46:17.622Z,1001.71
2018-04-17T11:47:17.666Z,1001.67
2018-04-17T11:48:17.649Z,1001.64
2018-04-17T11:49:17.605Z,1001.70
2018-04-17T11:50:17.690Z,1001.57
2018-04-17T11:51:17.585Z,1001.64
2018-04-17T11:52:17.583Z,1001.67
2018-04-17T11:53:17.611Z,1001.58
2018-04-17T11:54:17.619Z,1001.71
2018-04-17T11:55:17.628Z,1001.65
2018-04-17T11:56:17.693Z,1001.62
2018-04-17T11:57:17.608Z,1001.63
2018-04-17T11:58:17.610Z,1001.64
2018-04-17T11:59:17.631Z,1001.62
2018-04-17T12:00:17.608Z,1001.59
2018-04-17T12:01:17.602Z,1001.76
2018-04-17T12:02:17.667Z,1001.80
2018-04-17T12:03:17.638Z,1001.73
2018-04-17T12:04:17.653Z,1001.71
2018-04-17T12:05:17.632Z,1001.68
2018-04-17T12:06:17.613Z,1001.70
2018-04-17T12:07:17.606Z,1001.65
2018-04-17T12:08:17.668Z,1001.60
2018-04-17T12:09:17.662Z,1001.59
2018-04-17T12:10:19.245Z,1001.56
2018-04-17T12:11:17.708Z,1001.69
2018-04-17T12:12:17.692Z,1001.66
2018-04-17T12:13:17.717Z,1001.65
2018-04-17T12:14:17.640Z,1001.64
2018-04-17T12:15:17.655Z,1001.64
2018-04-17T12:16:17.638Z,1001.67
2018-04-17T12:17:17.653Z,1001.69
2018-04-17T12:18:17.579Z,1001.70
2018-04-17T12:19:17.645Z,1001.69
2018-04-17T12:20:18.060Z,1001.64
2018-04-17T12:21:18.614Z,1001.65
2018-04-17T12:22:17.635Z,1001.68
2018-04-17T12:23:17.640Z,1001.72
2018-04-17T12:24:17.608Z,1001.76
2018-04-17T12:25:17.656Z,1001.73
2018-04-17T12:26:17.599Z,1001.78
2018-04-17T12:27:17.723Z,1001.69
2018-04-17T12:28:17.625Z,1001.85
2018-04-17T12:29:17.590Z,1001.85
2018-04-17T12:30:17.673Z,1001.87
2018-04-17T12:31:17.899Z,1001.84
2018-04-17T12:32:17.593Z,1001.83
2018-04-17T12:33:17.635Z,1001.80
2018-04-17T12:34:17.611Z,1001.81
2018-04-17T12:35:17.572Z,1001.81
2018-04-17T12:36:17.626Z,1001.81
2018-04-17T12:37:17.613Z,1001.77
2018-04-17T12:38:17.559Z,1001.72
2018-04-17T12:39:17.584Z,1001.72
2018-04-17T12:40:17.569Z,1001.68
2018-04-17T12:41:17.593Z,1001.65
2018-04-17T12:42:17.718Z,1001.65
2018-04-17T12:43:18.433Z,1001.67
2018-04-17T12:44:17.583Z,1001.68
2018-04-17T12:45:17.623Z,1001.68
2018-04-17T12:46:17.638Z,1001.65
2018-04-17T12:47:17.637Z,1001.67
2018-04-17T12:48:19.088Z,1001.59
2018-04-17T12:49:17.605Z,1001.65
2018-04-17T12:50:17.601Z,1001.57
2018-04-17T12:51:17.649Z,1001.59
2018-04-17T12:52:17.578Z,1001.59
2018-04-17T12:53:17.566Z,1001.62
2018-04-17T12:54:17.579Z,1001.63
2018-04-17T12:55:17.606Z,1001.60
2018-04-17T12:56:17.576Z,1001.52
2018-04-17T12:57:17.583Z,1001.53
2018-04-17T12:58:17.582Z,1001.52
2018-04-17T12:59:17.581Z,1001.52
2018-04-17T13:00:17.606Z,1001.54
2018-04-17T13:01:17.624Z,1001.65
2018-04-17T13:02:17.577Z,1001.63
2018-04-17T13:03:17.634Z,1001.46
2018-04-17T13:04:17.585Z,1001.62
2018-04-17T13:05:17.586Z,1001.71
2018-04-17T13:06:17.582Z,1001.75
2018-04-17T13:07:17.593Z,1001.77
2018-04-17T13:11:44.891Z,1001.85
2018-04-17T13:12:44.109Z,1001.95
2018-04-17T13:13:43.210Z,1001.89
2018-04-17T13:14:43.179Z,1001.91
2018-04-17T13:15:44.070Z,1001.90
2018-04-17T13:16:43.010Z,1001.85
2018-04-17T13:17:42.955Z,1001.88
2018-04-17T13:18:43.074Z,1001.84
2018-04-17T13:19:43.035Z,1001.81
2018-04-17T13:20:42.939Z,1001.84
2018-04-17T13:21:42.921Z,1001.83
2018-04-17T13:22:42.877Z,1001.85
2018-04-17T13:23:42.970Z,1001.85
2018-04-17T13:24:42.948Z,1001.78
2018-04-17T13:25:42.906Z,1001.76
2018-04-17T13:26:44.546Z,1001.55
2018-04-17T13:27:42.920Z,1001.74
2018-04-17T13:28:42.794Z,1001.69
2018-04-17T13:29:42.823Z,1001.71
2018-04-17T13:30:42.876Z,1001.00
2018-04-17T13:31:42.848Z,1001.70
2018-04-17T13:32:42.897Z,1001.64
2018-04-17T13:33:42.870Z,1001.65
2018-04-17T13:34:42.917Z,1001.63
2018-04-17T13:35:42.906Z,1001.60
2018-04-17T13:36:42.936Z,1001.63
2018-04-17T13:37:42.864Z,1001.63
2018-04-17T13:38:42.949Z,1001.62
2018-04-17T13:39:42.859Z,1001.61
2018-04-17T13:40:42.815Z,1001.63